sensor_id;sensor_type;location;lat;lon;timestamp;P1;durP1;ratioP1;P2;durP2;ratioP2
77733;SDS011;66902;41.720;44.796;2024-03-02T00:01:19;35.60;;;24.00;;
77733;SDS011;66902;41.720;44.796;2024-03-02T00:03:53;27.60;;;21.40;;
77733;SDS011;66902;41.720;44.796;2024-03-02T00:06:27;25.70;;;21.40;;
77733;SDS011;66902;41.720;44.796;2024-03-02T00:09:01;28.30;;;19.60;;
77733;SDS011;66902;41.720;44.796;2024-03-02T00:11:36;38.10;;;23.30;;
77733;SDS011;66902;41.720;44.796;2024-03-02T00:14:11;26.80;;;21.30;;
77733;SDS011;66902;41.720;44.796;2024-03-02T00:16:45;25.40;;;22.20;;
77733;SDS011;66902;41.720;44.796;2024-03-02T00:19:19;36.20;;;22.90;;
77733;SDS011;66902;41.720;44.796;2024-03-02T00:21:53;30.50;;;25.40;;
77733;SDS011;66902;41.720;44.796;2024-03-02T00:24:30;26.00;;;23.30;;
77733;SDS011;66902;41.720;44.796;2024-03-02T00:27:05;31.90;;;23.10;;
77733;SDS011;66902;41.720;44.796;2024-03-02T00:29:41;28.10;;;24.90;;
77733;SDS011;66902;41.720;44.796;2024-03-02T00:32:15;31.80;;;22.70;;
77733;SDS011;66902;41.720;44.796;2024-03-02T00:34:50;31.10;;;24.70;;
77733;SDS011;66902;41.720;44.796;2024-03-02T00:37:23;34.30;;;23.00;;
77733;SDS011;66902;41.720;44.796;2024-03-02T00:39:58;29.20;;;22.80;;
77733;SDS011;66902;41.720;44.796;2024-03-02T00:42:34;28.60;;;23.30;;
77733;SDS011;66902;41.720;44.796;2024-03-02T00:45:08;29.30;;;22.50;;
77733;SDS011;66902;41.720;44.796;2024-03-02T00:47:42;25.80;;;22.90;;
77733;SDS011;66902;41.720;44.796;2024-03-02T00:50:17;24.30;;;21.80;;
77733;SDS011;66902;41.720;44.796;2024-03-02T00:53:00;26.60;;;22.90;;
77733;SDS011;66902;41.720;44.796;2024-03-02T00:55:37;33.40;;;23.10;;
77733;SDS011;66902;41.720;44.796;2024-03-02T00:58:14;33.70;;;22.80;;
77733;SDS011;66902;41.720;44.796;2024-03-02T01:00:48;24.50;;;22.10;;
77733;SDS011;66902;41.720;44.796;2024-03-02T01:03:22;31.10;;;23.00;;
77733;SDS011;66902;41.720;44.796;2024-03-02T01:05:56;33.30;;;24.00;;
77733;SDS011;66902;41.720;44.796;2024-03-02T01:08:30;28.30;;;22.60;;
77733;SDS011;66902;41.720;44.796;2024-03-02T01:11:04;29.50;;;23.30;;
77733;SDS011;66902;41.720;44.796;2024-03-02T01:13:38;31.80;;;23.50;;
77733;SDS011;66902;41.720;44.796;2024-03-02T01:16:13;36.20;;;23.60;;
77733;SDS011;66902;41.720;44.796;2024-03-02T01:18:47;27.50;;;21.90;;
77733;SDS011;66902;41.720;44.796;2024-03-02T01:21:22;30.70;;;21.30;;
77733;SDS011;66902;41.720;44.796;2024-03-02T01:24:07;26.20;;;20.20;;
77733;SDS011;66902;41.720;44.796;2024-03-02T01:26:40;29.20;;;21.90;;
77733;SDS011;66902;41.720;44.796;2024-03-02T01:29:16;28.80;;;21.20;;
77733;SDS011;66902;41.720;44.796;2024-03-02T01:31:50;23.40;;;20.10;;
77733;SDS011;66902;41.720;44.796;2024-03-02T01:34:25;27.30;;;21.90;;
77733;SDS011;66902;41.720;44.796;2024-03-02T01:36:59;24.70;;;22.20;;
77733;SDS011;66902;41.720;44.796;2024-03-02T01:39:33;24.30;;;21.30;;
77733;SDS011;66902;41.720;44.796;2024-03-02T01:42:07;27.00;;;21.80;;
77733;SDS011;66902;41.720;44.796;2024-03-02T01:44:41;25.20;;;20.60;;
77733;SDS011;66902;41.720;44.796;2024-03-02T01:47:16;26.10;;;22.10;;
77733;SDS011;66902;41.720;44.796;2024-03-02T01:49:50;25.20;;;19.90;;
77733;SDS011;66902;41.720;44.796;2024-03-02T01:54:59;26.00;;;19.90;;
77733;SDS011;66902;41.720;44.796;2024-03-02T01:57:34;24.20;;;21.60;;
77733;SDS011;66902;41.720;44.796;2024-03-02T02:00:09;29.40;;;21.60;;
77733;SDS011;66902;41.720;44.796;2024-03-02T02:02:43;23.50;;;19.30;;
77733;SDS011;66902;41.720;44.796;2024-03-02T02:05:17;29.20;;;20.80;;
77733;SDS011;66902;41.720;44.796;2024-03-02T02:07:52;24.10;;;18.30;;
77733;SDS011;66902;41.720;44.796;2024-03-02T02:10:29;21.80;;;19.40;;
77733;SDS011;66902;41.720;44.796;2024-03-02T02:13:02;27.70;;;20.10;;
77733;SDS011;66902;41.720;44.796;2024-03-02T02:15:38;30.80;;;19.10;;
77733;SDS011;66902;41.720;44.796;2024-03-02T02:18:11;27.00;;;20.20;;
77733;SDS011;66902;41.720;44.796;2024-03-02T02:20:45;25.90;;;20.10;;
77733;SDS011;66902;41.720;44.796;2024-03-02T02:23:19;24.70;;;20.40;;
77733;SDS011;66902;41.720;44.796;2024-03-02T02:25:54;26.10;;;20.80;;
77733;SDS011;66902;41.720;44.796;2024-03-02T02:28:28;25.80;;;19.10;;
77733;SDS011;66902;41.720;44.796;2024-03-02T02:31:01;24.50;;;19.30;;
77733;SDS011;66902;41.720;44.796;2024-03-02T02:33:37;26.40;;;19.50;;
77733;SDS011;66902;41.720;44.796;2024-03-02T02:36:13;20.50;;;17.60;;
77733;SDS011;66902;41.720;44.796;2024-03-02T02:38:47;32.60;;;18.50;;
77733;SDS011;66902;41.720;44.796;2024-03-02T02:41:21;22.90;;;18.00;;
77733;SDS011;66902;41.720;44.796;2024-03-02T02:43:56;23.00;;;20.30;;
77733;SDS011;66902;41.720;44.796;2024-03-02T02:46:30;27.00;;;19.50;;
77733;SDS011;66902;41.720;44.796;2024-03-02T02:49:04;24.30;;;20.10;;
77733;SDS011;66902;41.720;44.796;2024-03-02T02:51:38;23.30;;;20.10;;
77733;SDS011;66902;41.720;44.796;2024-03-02T02:54:13;22.10;;;19.50;;
77733;SDS011;66902;41.720;44.796;2024-03-02T02:56:47;23.80;;;18.70;;
77733;SDS011;66902;41.720;44.796;2024-03-02T02:59:20;23.10;;;18.50;;
77733;SDS011;66902;41.720;44.796;2024-03-02T03:01:54;25.00;;;19.90;;
77733;SDS011;66902;41.720;44.796;2024-03-02T03:04:29;24.70;;;20.20;;
77733;SDS011;66902;41.720;44.796;2024-03-02T03:07:04;27.70;;;19.30;;
77733;SDS011;66902;41.720;44.796;2024-03-02T03:09:38;20.80;;;17.50;;
77733;SDS011;66902;41.720;44.796;2024-03-02T03:12:13;21.40;;;19.10;;
77733;SDS011;66902;41.720;44.796;2024-03-02T03:14:47;22.70;;;18.70;;
77733;SDS011;66902;41.720;44.796;2024-03-02T03:17:22;22.60;;;16.80;;
77733;SDS011;66902;41.720;44.796;2024-03-02T03:19:56;25.80;;;18.40;;
77733;SDS011;66902;41.720;44.796;2024-03-02T03:22:31;24.90;;;18.80;;
77733;SDS011;66902;41.720;44.796;2024-03-02T03:25:06;27.60;;;20.10;;
77733;SDS011;66902;41.720;44.796;2024-03-02T03:27:40;21.70;;;18.30;;
77733;SDS011;66902;41.720;44.796;2024-03-02T03:30:15;22.60;;;18.30;;
77733;SDS011;66902;41.720;44.796;2024-03-02T03:32:48;21.90;;;18.70;;
77733;SDS011;66902;41.720;44.796;2024-03-02T03:35:22;24.10;;;20.20;;
77733;SDS011;66902;41.720;44.796;2024-03-02T03:37:56;19.40;;;17.20;;
77733;SDS011;66902;41.720;44.796;2024-03-02T03:40:30;26.60;;;19.10;;
77733;SDS011;66902;41.720;44.796;2024-03-02T03:43:07;25.70;;;19.90;;
77733;SDS011;66902;41.720;44.796;2024-03-02T03:45:41;25.10;;;20.90;;
77733;SDS011;66902;41.720;44.796;2024-03-02T03:48:14;29.80;;;21.80;;
77733;SDS011;66902;41.720;44.796;2024-03-02T03:50:48;28.10;;;21.40;;
77733;SDS011;66902;41.720;44.796;2024-03-02T03:53:22;30.40;;;22.00;;
77733;SDS011;66902;41.720;44.796;2024-03-02T03:55:56;35.00;;;23.40;;
77733;SDS011;66902;41.720;44.796;2024-03-02T03:58:30;32.10;;;26.10;;
77733;SDS011;66902;41.720;44.796;2024-03-02T04:01:04;30.90;;;25.80;;
77733;SDS011;66902;41.720;44.796;2024-03-02T04:03:39;31.40;;;25.20;;
77733;SDS011;66902;41.720;44.796;2024-03-02T04:06:14;35.50;;;25.70;;
77733;SDS011;66902;41.720;44.796;2024-03-02T04:08:48;33.00;;;24.90;;
77733;SDS011;66902;41.720;44.796;2024-03-02T04:11:21;42.60;;;25.70;;
77733;SDS011;66902;41.720;44.796;2024-03-02T04:13:56;28.20;;;23.20;;
77733;SDS011;66902;41.720;44.796;2024-03-02T04:16:33;42.10;;;24.00;;
77733;SDS011;66902;41.720;44.796;2024-03-02T04:19:07;26.70;;;22.60;;
77733;SDS011;66902;41.720;44.796;2024-03-02T04:21:41;31.40;;;23.90;;
77733;SDS011;66902;41.720;44.796;2024-03-02T04:24:16;32.90;;;22.00;;
77733;SDS011;66902;41.720;44.796;2024-03-02T04:26:49;38.70;;;25.00;;
77733;SDS011;66902;41.720;44.796;2024-03-02T04:29:23;34.50;;;24.10;;
77733;SDS011;66902;41.720;44.796;2024-03-02T04:31:57;35.00;;;24.80;;
77733;SDS011;66902;41.720;44.796;2024-03-02T04:34:31;28.60;;;23.10;;
77733;SDS011;66902;41.720;44.796;2024-03-02T04:37:05;34.20;;;24.50;;
77733;SDS011;66902;41.720;44.796;2024-03-02T04:39:40;31.80;;;21.60;;
77733;SDS011;66902;41.720;44.796;2024-03-02T04:42:14;30.20;;;22.50;;
77733;SDS011;66902;41.720;44.796;2024-03-02T04:44:48;29.40;;;25.40;;
77733;SDS011;66902;41.720;44.796;2024-03-02T04:47:22;27.70;;;21.80;;
77733;SDS011;66902;41.720;44.796;2024-03-02T04:49:56;32.20;;;23.50;;
77733;SDS011;66902;41.720;44.796;2024-03-02T04:52:30;28.50;;;24.00;;
77733;SDS011;66902;41.720;44.796;2024-03-02T04:55:04;31.30;;;24.10;;
77733;SDS011;66902;41.720;44.796;2024-03-02T04:57:54;26.10;;;23.40;;
77733;SDS011;66902;41.720;44.796;2024-03-02T05:00:27;29.60;;;23.10;;
77733;SDS011;66902;41.720;44.796;2024-03-02T05:03:01;27.70;;;23.00;;
77733;SDS011;66902;41.720;44.796;2024-03-02T05:05:36;30.10;;;21.90;;
77733;SDS011;66902;41.720;44.796;2024-03-02T05:08:10;29.10;;;22.00;;
77733;SDS011;66902;41.720;44.796;2024-03-02T05:10:44;26.00;;;21.40;;
77733;SDS011;66902;41.720;44.796;2024-03-02T05:13:18;24.40;;;21.60;;
77733;SDS011;66902;41.720;44.796;2024-03-02T05:15:52;25.80;;;22.10;;
77733;SDS011;66902;41.720;44.796;2024-03-02T05:18:26;24.20;;;21.10;;
77733;SDS011;66902;41.720;44.796;2024-03-02T05:21:01;30.10;;;20.60;;
77733;SDS011;66902;41.720;44.796;2024-03-02T05:23:35;24.20;;;21.50;;
77733;SDS011;66902;41.720;44.796;2024-03-02T05:26:09;31.30;;;19.90;;
77733;SDS011;66902;41.720;44.796;2024-03-02T05:28:43;28.00;;;21.70;;
77733;SDS011;66902;41.720;44.796;2024-03-02T05:31:17;27.00;;;21.50;;
77733;SDS011;66902;41.720;44.796;2024-03-02T05:33:51;25.30;;;21.40;;
77733;SDS011;66902;41.720;44.796;2024-03-02T05:36:27;27.10;;;21.00;;
77733;SDS011;66902;41.720;44.796;2024-03-02T05:39:01;28.90;;;21.70;;
77733;SDS011;66902;41.720;44.796;2024-03-02T05:41:37;31.40;;;22.30;;
77733;SDS011;66902;41.720;44.796;2024-03-02T05:44:11;31.10;;;21.50;;
77733;SDS011;66902;41.720;44.796;2024-03-02T05:46:45;33.60;;;22.70;;
77733;SDS011;66902;41.720;44.796;2024-03-02T05:49:20;30.00;;;23.30;;
77733;SDS011;66902;41.720;44.796;2024-03-02T05:51:57;34.30;;;24.00;;
77733;SDS011;66902;41.720;44.796;2024-03-02T05:54:30;30.30;;;24.80;;
77733;SDS011;66902;41.720;44.796;2024-03-02T05:57:04;36.60;;;24.40;;
77733;SDS011;66902;41.720;44.796;2024-03-02T06:00:02;30.60;;;22.80;;
77733;SDS011;66902;41.720;44.796;2024-03-02T06:02:40;37.80;;;25.50;;
77733;SDS011;66902;41.720;44.796;2024-03-02T06:05:14;26.40;;;20.10;;
77733;SDS011;66902;41.720;44.796;2024-03-02T06:07:49;30.60;;;22.80;;
77733;SDS011;66902;41.720;44.796;2024-03-02T06:10:23;24.20;;;21.40;;
77733;SDS011;66902;41.720;44.796;2024-03-02T06:12:56;31.30;;;22.50;;
77733;SDS011;66902;41.720;44.796;2024-03-02T06:15:30;26.80;;;22.70;;
77733;SDS011;66902;41.720;44.796;2024-03-02T06:18:06;31.20;;;22.30;;
77733;SDS011;66902;41.720;44.796;2024-03-02T06:20:40;27.60;;;21.30;;
77733;SDS011;66902;41.720;44.796;2024-03-02T06:23:14;30.50;;;21.60;;
77733;SDS011;66902;41.720;44.796;2024-03-02T06:25:48;29.20;;;23.50;;
77733;SDS011;66902;41.720;44.796;2024-03-02T06:28:22;30.10;;;23.00;;
77733;SDS011;66902;41.720;44.796;2024-03-02T06:30:56;25.60;;;21.60;;
77733;SDS011;66902;41.720;44.796;2024-03-02T06:33:31;30.40;;;21.50;;
77733;SDS011;66902;41.720;44.796;2024-03-02T06:36:05;27.70;;;23.50;;
77733;SDS011;66902;41.720;44.796;2024-03-02T06:38:39;30.40;;;23.40;;
77733;SDS011;66902;41.720;44.796;2024-03-02T06:41:13;24.70;;;18.30;;
77733;SDS011;66902;41.720;44.796;2024-03-02T06:43:47;25.50;;;22.00;;
77733;SDS011;66902;41.720;44.796;2024-03-02T06:46:24;24.90;;;21.90;;
77733;SDS011;66902;41.720;44.796;2024-03-02T06:48:58;31.10;;;21.90;;
77733;SDS011;66902;41.720;44.796;2024-03-02T06:51:33;32.50;;;23.10;;
77733;SDS011;66902;41.720;44.796;2024-03-02T06:54:07;27.00;;;21.80;;
77733;SDS011;66902;41.720;44.796;2024-03-02T06:56:41;34.90;;;24.20;;
77733;SDS011;66902;41.720;44.796;2024-03-02T06:59:15;28.60;;;21.60;;
77733;SDS011;66902;41.720;44.796;2024-03-02T07:01:49;22.00;;;19.80;;
77733;SDS011;66902;41.720;44.796;2024-03-02T07:04:23;26.40;;;20.20;;
77733;SDS011;66902;41.720;44.796;2024-03-02T07:06:57;27.40;;;21.80;;
77733;SDS011;66902;41.720;44.796;2024-03-02T07:09:30;26.30;;;22.20;;
77733;SDS011;66902;41.720;44.796;2024-03-02T07:12:05;32.70;;;24.00;;
77733;SDS011;66902;41.720;44.796;2024-03-02T07:14:39;26.20;;;21.10;;
77733;SDS011;66902;41.720;44.796;2024-03-02T07:17:29;22.40;;;19.80;;
77733;SDS011;66902;41.720;44.796;2024-03-02T07:20:03;25.40;;;21.60;;
77733;SDS011;66902;41.720;44.796;2024-03-02T07:22:38;27.60;;;20.80;;
77733;SDS011;66902;41.720;44.796;2024-03-02T07:25:13;30.60;;;20.20;;
77733;SDS011;66902;41.720;44.796;2024-03-02T07:27:50;27.10;;;21.20;;
77733;SDS011;66902;41.720;44.796;2024-03-02T07:30:24;25.40;;;21.40;;
77733;SDS011;66902;41.720;44.796;2024-03-02T07:33:01;27.30;;;21.00;;
77733;SDS011;66902;41.720;44.796;2024-03-02T07:35:37;34.70;;;20.60;;
77733;SDS011;66902;41.720;44.796;2024-03-02T07:38:10;28.60;;;23.00;;
77733;SDS011;66902;41.720;44.796;2024-03-02T07:40:44;33.20;;;22.00;;
77733;SDS011;66902;41.720;44.796;2024-03-02T07:43:20;33.10;;;24.50;;
77733;SDS011;66902;41.720;44.796;2024-03-02T07:45:54;27.80;;;22.60;;
77733;SDS011;66902;41.720;44.796;2024-03-02T07:48:28;36.20;;;24.90;;
77733;SDS011;66902;41.720;44.796;2024-03-02T07:51:02;31.60;;;23.00;;
77733;SDS011;66902;41.720;44.796;2024-03-02T07:53:36;30.70;;;22.80;;
77733;SDS011;66902;41.720;44.796;2024-03-02T07:56:10;40.60;;;23.50;;
77733;SDS011;66902;41.720;44.796;2024-03-02T07:58:44;37.50;;;24.40;;
77733;SDS011;66902;41.720;44.796;2024-03-02T08:01:19;31.50;;;23.40;;
77733;SDS011;66902;41.720;44.796;2024-03-02T08:03:52;38.60;;;22.70;;
77733;SDS011;66902;41.720;44.796;2024-03-02T08:06:28;38.00;;;25.40;;
77733;SDS011;66902;41.720;44.796;2024-03-02T08:09:02;27.20;;;22.20;;
77733;SDS011;66902;41.720;44.796;2024-03-02T08:11:39;38.30;;;24.40;;
77733;SDS011;66902;41.720;44.796;2024-03-02T08:14:15;39.10;;;25.30;;
77733;SDS011;66902;41.720;44.796;2024-03-02T08:16:48;36.50;;;25.00;;
77733;SDS011;66902;41.720;44.796;2024-03-02T08:19:22;35.80;;;25.70;;
77733;SDS011;66902;41.720;44.796;2024-03-02T08:21:56;32.40;;;24.20;;
77733;SDS011;66902;41.720;44.796;2024-03-02T08:27:05;39.90;;;25.30;;
77733;SDS011;66902;41.720;44.796;2024-03-02T08:29:40;28.40;;;24.90;;
77733;SDS011;66902;41.720;44.796;2024-03-02T08:32:13;35.50;;;27.20;;
77733;SDS011;66902;41.720;44.796;2024-03-02T08:34:50;31.70;;;23.20;;
77733;SDS011;66902;41.720;44.796;2024-03-02T08:37:23;26.40;;;23.60;;
77733;SDS011;66902;41.720;44.796;2024-03-02T08:39:57;32.70;;;25.70;;
77733;SDS011;66902;41.720;44.796;2024-03-02T08:42:31;32.40;;;22.80;;
77733;SDS011;66902;41.720;44.796;2024-03-02T08:45:05;31.60;;;25.10;;
77733;SDS011;66902;41.720;44.796;2024-03-02T08:47:43;26.00;;;23.30;;
77733;SDS011;66902;41.720;44.796;2024-03-02T08:50:17;27.70;;;23.80;;
77733;SDS011;66902;41.720;44.796;2024-03-02T08:52:51;26.90;;;23.10;;
77733;SDS011;66902;41.720;44.796;2024-03-02T08:55:25;30.00;;;24.10;;
77733;SDS011;66902;41.720;44.796;2024-03-02T08:57:59;28.10;;;24.80;;
77733;SDS011;66902;41.720;44.796;2024-03-02T09:00:33;38.10;;;29.70;;
77733;SDS011;66902;41.720;44.796;2024-03-02T09:03:07;28.90;;;25.70;;
77733;SDS011;66902;41.720;44.796;2024-03-02T09:05:41;32.10;;;24.90;;
77733;SDS011;66902;41.720;44.796;2024-03-02T09:08:15;28.90;;;25.60;;
77733;SDS011;66902;41.720;44.796;2024-03-02T09:10:48;31.10;;;26.00;;
77733;SDS011;66902;41.720;44.796;2024-03-02T09:13:22;27.00;;;23.60;;
77733;SDS011;66902;41.720;44.796;2024-03-02T09:15:56;32.90;;;25.30;;
77733;SDS011;66902;41.720;44.796;2024-03-02T09:18:31;31.00;;;25.50;;
77733;SDS011;66902;41.720;44.796;2024-03-02T09:21:06;26.50;;;23.80;;
77733;SDS011;66902;41.720;44.796;2024-03-02T09:23:40;32.00;;;25.90;;
77733;SDS011;66902;41.720;44.796;2024-03-02T09:26:16;33.40;;;26.80;;
77733;SDS011;66902;41.720;44.796;2024-03-02T09:28:50;31.50;;;25.40;;
77733;SDS011;66902;41.720;44.796;2024-03-02T09:31:25;29.10;;;25.40;;
77733;SDS011;66902;41.720;44.796;2024-03-02T09:33:58;29.40;;;24.50;;
77733;SDS011;66902;41.720;44.796;2024-03-02T09:36:33;34.50;;;25.60;;
77733;SDS011;66902;41.720;44.796;2024-03-02T09:39:06;28.60;;;24.70;;
77733;SDS011;66902;41.720;44.796;2024-03-02T09:41:40;35.00;;;25.20;;
77733;SDS011;66902;41.720;44.796;2024-03-02T09:44:14;29.80;;;24.80;;
77733;SDS011;66902;41.720;44.796;2024-03-02T09:46:50;30.20;;;24.60;;
77733;SDS011;66902;41.720;44.796;2024-03-02T09:49:26;30.80;;;23.20;;
77733;SDS011;66902;41.720;44.796;2024-03-02T09:52:03;30.00;;;25.80;;
77733;SDS011;66902;41.720;44.796;2024-03-02T09:54:37;25.40;;;22.70;;
77733;SDS011;66902;41.720;44.796;2024-03-02T09:57:12;28.00;;;25.00;;
77733;SDS011;66902;41.720;44.796;2024-03-02T09:59:46;29.90;;;26.00;;
77733;SDS011;66902;41.720;44.796;2024-03-02T10:02:20;30.30;;;25.40;;
77733;SDS011;66902;41.720;44.796;2024-03-02T10:04:53;34.70;;;25.80;;
77733;SDS011;66902;41.720;44.796;2024-03-02T10:07:27;30.80;;;24.30;;
77733;SDS011;66902;41.720;44.796;2024-03-02T10:10:12;36.70;;;28.20;;
77733;SDS011;66902;41.720;44.796;2024-03-02T10:12:46;39.70;;;26.20;;
77733;SDS011;66902;41.720;44.796;2024-03-02T10:15:25;29.80;;;23.90;;
77733;SDS011;66902;41.720;44.796;2024-03-02T10:17:58;29.10;;;23.50;;
77733;SDS011;66902;41.720;44.796;2024-03-02T10:20:32;32.10;;;25.10;;
77733;SDS011;66902;41.720;44.796;2024-03-02T10:23:14;29.90;;;24.10;;
77733;SDS011;66902;41.720;44.796;2024-03-02T10:25:48;36.80;;;26.60;;
77733;SDS011;66902;41.720;44.796;2024-03-02T10:28:27;31.90;;;24.90;;
77733;SDS011;66902;41.720;44.796;2024-03-02T10:31:01;36.60;;;27.50;;
77733;SDS011;66902;41.720;44.796;2024-03-02T10:33:37;32.30;;;27.40;;
77733;SDS011;66902;41.720;44.796;2024-03-02T10:36:11;28.60;;;25.50;;
77733;SDS011;66902;41.720;44.796;2024-03-02T10:38:52;32.70;;;24.30;;
77733;SDS011;66902;41.720;44.796;2024-03-02T10:41:27;30.40;;;24.30;;
77733;SDS011;66902;41.720;44.796;2024-03-02T10:44:03;30.90;;;24.30;;
77733;SDS011;66902;41.720;44.796;2024-03-02T10:46:38;35.80;;;24.90;;
77733;SDS011;66902;41.720;44.796;2024-03-02T10:49:12;31.80;;;24.30;;
77733;SDS011;66902;41.720;44.796;2024-03-02T10:51:47;28.30;;;22.80;;
77733;SDS011;66902;41.720;44.796;2024-03-02T10:54:21;32.40;;;25.90;;
77733;SDS011;66902;41.720;44.796;2024-03-02T10:56:58;27.80;;;23.70;;
77733;SDS011;66902;41.720;44.796;2024-03-02T10:59:33;33.90;;;23.20;;
77733;SDS011;66902;41.720;44.796;2024-03-02T11:04:41;26.90;;;23.70;;
77733;SDS011;66902;41.720;44.796;2024-03-02T11:07:15;26.80;;;24.00;;
77733;SDS011;66902;41.720;44.796;2024-03-02T11:09:56;32.10;;;26.30;;
77733;SDS011;66902;41.720;44.796;2024-03-02T11:12:42;35.50;;;25.50;;
77733;SDS011;66902;41.720;44.796;2024-03-02T11:15:19;30.40;;;24.00;;
77733;SDS011;66902;41.720;44.796;2024-03-02T11:17:54;30.20;;;24.80;;
77733;SDS011;66902;41.720;44.796;2024-03-02T11:20:28;33.90;;;25.20;;
77733;SDS011;66902;41.720;44.796;2024-03-02T11:23:06;30.00;;;24.20;;
77733;SDS011;66902;41.720;44.796;2024-03-02T11:25:40;26.50;;;23.20;;
77733;SDS011;66902;41.720;44.796;2024-03-02T11:28:14;31.40;;;26.30;;
77733;SDS011;66902;41.720;44.796;2024-03-02T11:30:50;30.10;;;24.70;;
77733;SDS011;66902;41.720;44.796;2024-03-02T11:33:25;28.60;;;24.80;;
77733;SDS011;66902;41.720;44.796;2024-03-02T11:36:02;32.80;;;29.00;;
77733;SDS011;66902;41.720;44.796;2024-03-02T11:41:10;35.90;;;26.80;;
77733;SDS011;66902;41.720;44.796;2024-03-02T11:43:44;30.70;;;27.00;;
77733;SDS011;66902;41.720;44.796;2024-03-02T11:46:19;31.30;;;26.30;;
77733;SDS011;66902;41.720;44.796;2024-03-02T11:48:55;33.10;;;27.30;;
77733;SDS011;66902;41.720;44.796;2024-03-02T11:51:29;28.90;;;24.60;;
77733;SDS011;66902;41.720;44.796;2024-03-02T11:54:04;34.10;;;25.60;;
77733;SDS011;66902;41.720;44.796;2024-03-02T11:56:40;29.70;;;24.90;;
77733;SDS011;66902;41.720;44.796;2024-03-02T11:59:14;32.10;;;28.40;;
77733;SDS011;66902;41.720;44.796;2024-03-02T12:01:52;32.40;;;26.00;;
77733;SDS011;66902;41.720;44.796;2024-03-02T12:04:26;31.70;;;25.70;;
77733;SDS011;66902;41.720;44.796;2024-03-02T12:07:01;28.40;;;25.40;;
77733;SDS011;66902;41.720;44.796;2024-03-02T12:09:35;33.50;;;26.20;;
77733;SDS011;66902;41.720;44.796;2024-03-02T12:12:09;26.90;;;22.20;;
77733;SDS011;66902;41.720;44.796;2024-03-02T12:14:53;27.10;;;23.00;;
77733;SDS011;66902;41.720;44.796;2024-03-02T12:17:27;35.60;;;25.80;;
77733;SDS011;66902;41.720;44.796;2024-03-02T12:20:01;29.60;;;24.10;;
77733;SDS011;66902;41.720;44.796;2024-03-02T12:22:35;28.90;;;22.50;;
77733;SDS011;66902;41.720;44.796;2024-03-02T12:25:09;30.10;;;24.50;;
77733;SDS011;66902;41.720;44.796;2024-03-02T12:27:43;30.50;;;23.80;;
77733;SDS011;66902;41.720;44.796;2024-03-02T12:30:17;28.30;;;25.10;;
77733;SDS011;66902;41.720;44.796;2024-03-02T12:32:52;29.80;;;22.60;;
77733;SDS011;66902;41.720;44.796;2024-03-02T12:35:26;29.00;;;23.60;;
77733;SDS011;66902;41.720;44.796;2024-03-02T12:37:59;31.70;;;27.00;;
77733;SDS011;66902;41.720;44.796;2024-03-02T12:40:35;32.50;;;24.20;;
77733;SDS011;66902;41.720;44.796;2024-03-02T12:43:09;32.60;;;25.10;;
77733;SDS011;66902;41.720;44.796;2024-03-02T12:45:43;34.20;;;25.50;;
77733;SDS011;66902;41.720;44.796;2024-03-02T12:48:17;28.30;;;24.80;;
77733;SDS011;66902;41.720;44.796;2024-03-02T12:50:52;28.60;;;24.60;;
77733;SDS011;66902;41.720;44.796;2024-03-02T12:53:26;31.00;;;25.90;;
77733;SDS011;66902;41.720;44.796;2024-03-02T12:55:59;29.10;;;25.30;;
77733;SDS011;66902;41.720;44.796;2024-03-02T12:58:38;31.50;;;25.60;;
77733;SDS011;66902;41.720;44.796;2024-03-02T13:01:14;38.70;;;26.20;;
77733;SDS011;66902;41.720;44.796;2024-03-02T13:03:50;27.40;;;24.70;;
77733;SDS011;66902;41.720;44.796;2024-03-02T13:06:25;29.50;;;26.40;;
77733;SDS011;66902;41.720;44.796;2024-03-02T13:08:59;36.20;;;24.70;;
77733;SDS011;66902;41.720;44.796;2024-03-02T13:11:35;28.70;;;25.00;;
77733;SDS011;66902;41.720;44.796;2024-03-02T13:14:08;31.90;;;24.80;;
77733;SDS011;66902;41.720;44.796;2024-03-02T13:16:44;35.80;;;25.80;;
77733;SDS011;66902;41.720;44.796;2024-03-02T13:19:19;32.60;;;27.30;;
77733;SDS011;66902;41.720;44.796;2024-03-02T13:21:52;30.80;;;25.00;;
77733;SDS011;66902;41.720;44.796;2024-03-02T13:24:29;35.90;;;25.00;;
77733;SDS011;66902;41.720;44.796;2024-03-02T13:27:04;28.40;;;22.80;;
77733;SDS011;66902;41.720;44.796;2024-03-02T13:29:38;34.10;;;25.90;;
77733;SDS011;66902;41.720;44.796;2024-03-02T13:32:15;33.70;;;26.60;;
77733;SDS011;66902;41.720;44.796;2024-03-02T13:34:53;32.80;;;25.70;;
77733;SDS011;66902;41.720;44.796;2024-03-02T13:37:27;27.50;;;24.60;;
77733;SDS011;66902;41.720;44.796;2024-03-02T13:40:03;28.50;;;25.50;;
77733;SDS011;66902;41.720;44.796;2024-03-02T13:42:43;34.80;;;25.30;;
77733;SDS011;66902;41.720;44.796;2024-03-02T13:45:18;32.70;;;26.40;;
77733;SDS011;66902;41.720;44.796;2024-03-02T13:47:52;36.00;;;24.90;;
77733;SDS011;66902;41.720;44.796;2024-03-02T13:50:26;28.00;;;23.50;;
77733;SDS011;66902;41.720;44.796;2024-03-02T13:53:00;34.50;;;24.70;;
77733;SDS011;66902;41.720;44.796;2024-03-02T13:55:34;31.40;;;24.60;;
77733;SDS011;66902;41.720;44.796;2024-03-02T13:58:09;31.60;;;24.40;;
77733;SDS011;66902;41.720;44.796;2024-03-02T14:00:43;33.30;;;26.70;;
77733;SDS011;66902;41.720;44.796;2024-03-02T14:03:17;37.50;;;27.90;;
77733;SDS011;66902;41.720;44.796;2024-03-02T14:05:53;29.70;;;26.40;;
77733;SDS011;66902;41.720;44.796;2024-03-02T14:08:26;40.30;;;29.50;;
77733;SDS011;66902;41.720;44.796;2024-03-02T14:11:01;29.30;;;25.80;;
77733;SDS011;66902;41.720;44.796;2024-03-02T14:13:35;31.90;;;27.80;;
77733;SDS011;66902;41.720;44.796;2024-03-02T14:16:09;28.90;;;25.70;;
77733;SDS011;66902;41.720;44.796;2024-03-02T14:18:43;32.80;;;27.20;;
77733;SDS011;66902;41.720;44.796;2024-03-02T14:21:16;34.50;;;26.50;;
77733;SDS011;66902;41.720;44.796;2024-03-02T14:23:54;38.80;;;27.60;;
77733;SDS011;66902;41.720;44.796;2024-03-02T14:26:28;37.60;;;26.80;;
77733;SDS011;66902;41.720;44.796;2024-03-02T14:29:03;28.50;;;25.50;;
77733;SDS011;66902;41.720;44.796;2024-03-02T14:31:38;31.40;;;26.00;;
77733;SDS011;66902;41.720;44.796;2024-03-02T14:34:14;35.40;;;27.40;;
77733;SDS011;66902;41.720;44.796;2024-03-02T14:36:48;34.70;;;26.70;;
77733;SDS011;66902;41.720;44.796;2024-03-02T14:39:22;42.60;;;28.40;;
77733;SDS011;66902;41.720;44.796;2024-03-02T14:41:55;33.40;;;27.10;;
77733;SDS011;66902;41.720;44.796;2024-03-02T14:44:29;38.10;;;28.50;;
77733;SDS011;66902;41.720;44.796;2024-03-02T14:47:05;38.30;;;27.80;;
77733;SDS011;66902;41.720;44.796;2024-03-02T14:49:39;41.00;;;29.00;;
77733;SDS011;66902;41.720;44.796;2024-03-02T14:52:12;32.30;;;27.20;;
77733;SDS011;66902;41.720;44.796;2024-03-02T14:54:47;36.50;;;26.70;;
77733;SDS011;66902;41.720;44.796;2024-03-02T14:57:22;37.40;;;27.30;;
77733;SDS011;66902;41.720;44.796;2024-03-02T14:59:56;36.20;;;30.70;;
77733;SDS011;66902;41.720;44.796;2024-03-02T15:02:30;39.00;;;29.30;;